createdAt,value
2022-11-25T00:01:10.264Z,21.80
2022-11-25T00:03:37.435Z,22.00
2022-11-25T00:06:17.440Z,21.80
2022-11-25T00:08:46.063Z,22.00
2022-11-25T00:11:14.395Z,21.80
2022-11-25T00:13:42.395Z,21.80
2022-11-25T00:16:12.672Z,21.60
2022-11-25T00:18:40.389Z,22.00
2022-11-25T00:21:09.790Z,22.00
2022-11-25T00:23:37.963Z,21.80
2022-11-25T00:26:18.017Z,21.90
2022-11-25T00:28:46.629Z,21.90
2022-11-25T00:31:20.866Z,22.00
2022-11-25T00:33:48.513Z,22.00
2022-11-25T00:36:21.685Z,21.80
2022-11-25T00:38:56.987Z,21.80
2022-11-25T00:41:43.021Z,22.10
2022-11-25T00:44:30.089Z,22.30
2022-11-25T00:46:57.461Z,22.20
2022-11-25T00:49:24.349Z,22.30
2022-11-25T00:51:51.862Z,22.00
2022-11-25T00:54:18.750Z,22.20
2022-11-25T00:56:45.851Z,22.40
2022-11-25T00:59:12.745Z,22.40
2022-11-25T01:01:39.881Z,22.50
2022-11-25T01:04:07.267Z,22.60
2022-11-25T01:06:35.677Z,22.50
2022-11-25T01:09:02.867Z,23.10
2022-11-25T01:11:30.024Z,23.40
2022-11-25T01:14:01.484Z,23.00
2022-11-25T01:16:30.123Z,22.60
2022-11-25T01:19:01.093Z,22.50
2022-11-25T01:21:31.691Z,22.70
2022-11-25T01:24:03.250Z,22.60
2022-11-25T01:26:31.070Z,22.60
2022-11-25T01:29:00.664Z,22.80
2022-11-25T01:31:30.401Z,22.90
2022-11-25T01:34:04.305Z,22.80
2022-11-25T01:36:31.316Z,22.60
2022-11-25T01:39:00.346Z,22.90
2022-11-25T01:41:30.230Z,22.80
2022-11-25T01:44:18.216Z,22.60
2022-11-25T01:47:13.195Z,22.40
2022-11-25T01:49:48.683Z,22.20
2022-11-25T01:52:22.424Z,22.40
2022-11-25T01:55:16.348Z,22.30
2022-11-25T01:57:46.328Z,22.20
2022-11-25T02:00:14.061Z,22.10
2022-11-25T02:02:41.457Z,22.00
2022-11-25T02:05:10.806Z,22.00
2022-11-25T02:07:41.256Z,21.90
2022-11-25T02:10:13.936Z,21.90
2022-11-25T02:12:43.350Z,21.70
2022-11-25T02:15:11.105Z,21.60
2022-11-25T02:17:38.353Z,21.50
2022-11-25T02:20:09.907Z,21.30
2022-11-25T02:22:58.351Z,21.40
2022-11-25T02:25:28.276Z,21.60
2022-11-25T02:28:03.001Z,21.60
2022-11-25T02:30:29.915Z,21.80
2022-11-25T02:32:59.320Z,21.80
2022-11-25T02:35:26.145Z,21.90
2022-11-25T02:37:55.875Z,21.90
2022-11-25T02:40:23.787Z,21.80
2022-11-25T02:42:51.568Z,21.60
2022-11-25T02:45:23.425Z,21.50
2022-11-25T02:47:50.287Z,21.50
2022-11-25T02:50:17.225Z,21.50
2022-11-25T02:52:45.308Z,21.40
2022-11-25T02:55:12.162Z,21.30
2022-11-25T02:57:39.071Z,21.40
2022-11-25T03:00:06.789Z,21.40
2022-11-25T03:02:34.168Z,21.60
2022-11-25T03:05:01.172Z,21.50
2022-11-25T03:07:28.143Z,21.30
2022-11-25T03:09:55.069Z,21.50
2022-11-25T03:12:22.126Z,21.60
2022-11-25T03:14:49.054Z,21.60
2022-11-25T03:17:15.914Z,21.60
2022-11-25T03:19:42.823Z,21.80
2022-11-25T03:22:09.750Z,21.90
2022-11-25T03:24:36.923Z,22.20
2022-11-25T03:27:09.618Z,22.00
2022-11-25T03:29:36.735Z,21.90
2022-11-25T03:32:09.138Z,21.90
2022-11-25T03:34:36.800Z,21.80
2022-11-25T03:37:03.979Z,21.60
2022-11-25T03:39:30.958Z,21.60
2022-11-25T03:41:57.860Z,21.40
2022-11-25T03:44:24.736Z,21.30
2022-11-25T03:46:51.598Z,21.70
2022-11-25T03:49:18.989Z,22.20
2022-11-25T03:51:45.889Z,22.50
2022-11-25T03:54:12.750Z,22.30
2022-11-25T03:56:39.766Z,22.20
2022-11-25T03:59:06.685Z,22.20
2022-11-25T04:01:33.657Z,22.10
2022-11-25T04:04:00.587Z,22.00
2022-11-25T04:06:27.431Z,22.10
2022-11-25T04:08:54.330Z,21.90
2022-11-25T04:11:21.375Z,21.80
2022-11-25T04:13:48.193Z,21.60
2022-11-25T04:16:26.267Z,21.80
2022-11-25T04:18:53.188Z,21.80
2022-11-25T04:21:20.052Z,21.70
2022-11-25T04:23:46.900Z,21.50
2022-11-25T04:26:13.889Z,21.30
2022-11-25T04:28:40.942Z,21.20
2022-11-25T04:31:09.020Z,21.20
2022-11-25T04:33:35.920Z,21.20
2022-11-25T04:36:02.844Z,21.20
2022-11-25T04:38:29.837Z,21.30
2022-11-25T04:40:56.726Z,21.30
2022-11-25T04:43:23.668Z,21.30
2022-11-25T04:46:13.465Z,21.50
2022-11-25T04:48:39.927Z,21.30
2022-11-25T04:51:06.975Z,21.40
2022-11-25T04:53:33.884Z,21.30
2022-11-25T04:56:00.789Z,21.20
2022-11-25T04:58:46.221Z,21.20
2022-11-25T05:01:13.335Z,21.10
2022-11-25T05:03:44.962Z,21.30
2022-11-25T05:06:15.195Z,21.20
2022-11-25T05:08:42.067Z,21.20
2022-11-25T05:11:08.949Z,21.50
2022-11-25T05:13:35.896Z,21.50
2022-11-25T05:16:02.751Z,21.60
2022-11-25T05:18:29.643Z,21.80
2022-11-25T05:21:02.361Z,22.00
2022-11-25T05:23:29.426Z,21.80
2022-11-25T05:26:03.990Z,21.70
2022-11-25T05:28:31.813Z,21.90
2022-11-25T05:30:58.926Z,21.80
2022-11-25T05:33:25.884Z,21.70
2022-11-25T05:36:00.921Z,21.50
2022-11-25T05:38:28.488Z,21.40
2022-11-25T05:41:01.767Z,21.80
2022-11-25T05:43:28.775Z,21.40
2022-11-25T05:45:56.041Z,21.40
2022-11-25T05:48:23.394Z,21.40
2022-11-25T05:50:50.361Z,21.40
2022-11-25T05:53:19.998Z,21.80
2022-11-25T05:55:55.565Z,22.20
2022-11-25T05:58:23.372Z,22.20
2022-11-25T06:00:51.065Z,22.00
2022-11-25T06:03:18.172Z,22.00
2022-11-25T06:05:45.328Z,22.80
2022-11-25T06:08:12.203Z,22.30
2022-11-25T06:10:40.765Z,22.20
2022-11-25T06:13:09.353Z,22.00
2022-11-25T06:15:42.421Z,22.00
2022-11-25T06:18:10.975Z,22.10
2022-11-25T06:20:38.647Z,22.20
2022-11-25T06:23:06.334Z,22.80
2022-11-25T06:25:34.191Z,22.90
2022-11-25T06:28:18.841Z,23.00
2022-11-25T06:30:45.875Z,22.80
2022-11-25T06:33:12.925Z,22.70
2022-11-25T06:35:39.787Z,22.70
2022-11-25T06:38:06.662Z,22.90
2022-11-25T06:40:33.567Z,23.00
2022-11-25T06:43:00.423Z,23.00
2022-11-25T06:45:28.386Z,23.10
2022-11-25T06:47:55.339Z,23.10
2022-11-25T06:50:22.420Z,22.80
2022-11-25T06:52:49.346Z,22.40
2022-11-25T06:55:16.347Z,22.20
2022-11-25T06:57:43.591Z,22.00
2022-11-25T07:00:10.890Z,21.90
2022-11-25T07:02:42.810Z,22.00
2022-11-25T07:05:11.176Z,22.10
2022-11-25T07:07:38.146Z,22.10
2022-11-25T07:10:05.677Z,22.10
2022-11-25T07:12:32.830Z,21.90
2022-11-25T07:14:59.790Z,21.70
2022-11-25T07:17:26.703Z,21.80
2022-11-25T07:19:53.659Z,21.70
2022-11-25T07:22:20.609Z,21.70
2022-11-25T07:24:47.597Z,21.60
2022-11-25T07:27:14.578Z,21.50
2022-11-25T07:30:03.112Z,21.60
2022-11-25T07:32:28.395Z,21.30
2022-11-25T07:34:55.310Z,21.60
2022-11-25T07:37:22.194Z,21.60
2022-11-25T07:39:49.143Z,22.00
2022-11-25T07:42:16.093Z,21.30
2022-11-25T07:44:42.995Z,21.30
2022-11-25T07:47:09.892Z,21.50
2022-11-25T07:49:37.162Z,21.40
2022-11-25T07:52:04.601Z,21.60
2022-11-25T07:54:33.251Z,21.50
2022-11-25T07:57:00.155Z,21.40
2022-11-25T07:59:27.314Z,21.60
2022-11-25T08:01:55.706Z,21.50
2022-11-25T08:04:23.166Z,21.40
2022-11-25T08:06:51.801Z,21.40
2022-11-25T08:09:21.738Z,21.60
2022-11-25T08:11:49.410Z,21.40
2022-11-25T08:14:16.967Z,22.00
2022-11-25T08:16:44.589Z,21.80
2022-11-25T08:19:15.091Z,21.60
2022-11-25T08:21:42.157Z,21.70
2022-11-25T08:24:15.247Z,21.60
2022-11-25T08:26:42.550Z,21.70
2022-11-25T08:29:15.905Z,21.60
2022-11-25T08:31:43.414Z,21.80
2022-11-25T08:34:20.806Z,21.60
2022-11-25T08:36:48.860Z,21.40
2022-11-25T08:39:44.219Z,21.50
2022-11-25T08:42:06.145Z,21.30
2022-11-25T08:44:33.316Z,21.20
2022-11-25T08:47:01.013Z,21.10
2022-11-25T08:49:34.777Z,21.10
2022-11-25T08:52:05.882Z,21.10
2022-11-25T08:54:32.798Z,21.10
2022-11-25T08:57:00.857Z,21.00
2022-11-25T08:59:27.784Z,20.80
2022-11-25T09:01:55.655Z,20.90
2022-11-25T09:04:22.594Z,21.20
2022-11-25T09:06:49.544Z,21.20
2022-11-25T09:09:16.573Z,21.20
2022-11-25T09:11:43.619Z,20.80
2022-11-25T09:14:10.620Z,20.70
2022-11-25T09:16:37.696Z,20.70
2022-11-25T09:19:04.737Z,20.90
2022-11-25T09:21:31.847Z,21.00
2022-11-25T09:23:59.879Z,21.20
2022-11-25T09:26:29.493Z,21.20
2022-11-25T09:28:56.794Z,21.00
2022-11-25T09:31:24.451Z,20.80
2022-11-25T09:33:51.462Z,20.70
2022-11-25T09:36:20.355Z,20.60
2022-11-25T09:38:47.533Z,20.50
2022-11-25T09:41:54.549Z,20.50
2022-11-25T09:45:08.928Z,20.60
2022-11-25T09:48:13.858Z,20.60
2022-11-25T09:51:05.915Z,20.60
2022-11-25T09:54:06.160Z,20.30
2022-11-25T09:56:41.680Z,19.70
2022-11-25T09:59:33.910Z,19.00
2022-11-25T10:02:05.181Z,18.70
2022-11-25T10:04:40.292Z,19.00
2022-11-25T10:07:18.737Z,19.20
2022-11-25T10:09:45.684Z,19.20
2022-11-25T10:12:50.137Z,19.50
2022-11-25T10:15:23.939Z,19.10
2022-11-25T10:17:59.079Z,18.80
2022-11-25T10:20:32.807Z,18.60
2022-11-25T10:23:22.281Z,18.60
2022-11-25T10:25:57.092Z,18.70
2022-11-25T10:28:30.008Z,18.90
2022-11-25T10:31:19.534Z,18.90
2022-11-25T10:33:53.239Z,19.00
2022-11-25T10:36:32.420Z,19.30
2022-11-25T10:39:24.955Z,19.40
2022-11-25T10:41:59.718Z,19.20
2022-11-25T10:44:30.389Z,19.30
2022-11-25T10:47:15.559Z,19.50
2022-11-25T10:49:57.818Z,19.80
2022-11-25T10:52:30.056Z,20.10
2022-11-25T10:55:26.042Z,20.60
2022-11-25T10:57:54.042Z,19.80
2022-11-25T11:00:26.901Z,19.80
2022-11-25T11:02:55.011Z,19.60
2022-11-25T11:05:29.705Z,19.90
2022-11-25T11:08:17.995Z,20.10
2022-11-25T11:10:45.677Z,20.10
2022-11-25T11:13:25.894Z,20.20
2022-11-25T11:15:54.331Z,20.30
2022-11-25T11:18:41.252Z,20.10
2022-11-25T11:21:38.193Z,19.90
2022-11-25T11:24:23.005Z,19.90
2022-11-25T11:27:03.406Z,20.10
2022-11-25T11:29:30.439Z,20.00
2022-11-25T11:32:03.785Z,20.00
2022-11-25T11:34:42.613Z,20.30
2022-11-25T11:37:44.559Z,20.20
2022-11-25T11:40:46.626Z,20.30
2022-11-25T11:43:56.578Z,20.60
2022-11-25T11:47:22.304Z,19.90
2022-11-25T11:49:49.186Z,19.60
2022-11-25T11:52:39.074Z,18.90
2022-11-25T11:55:20.738Z,18.60
2022-11-25T11:58:14.796Z,18.30
2022-11-25T12:01:22.438Z,17.90
2022-11-25T12:04:01.023Z,17.40
2022-11-25T12:06:32.917Z,17.70
2022-11-25T12:09:08.354Z,17.20
2022-11-25T12:11:45.494Z,17.20
2022-11-25T12:14:20.401Z,18.00
2022-11-25T12:16:55.597Z,18.60
2022-11-25T12:19:36.953Z,20.80
2022-11-25T12:22:23.616Z,18.70
2022-11-25T12:25:09.210Z,18.80
2022-11-25T12:27:44.481Z,19.50
2022-11-25T12:30:20.054Z,19.30
2022-11-25T12:33:12.390Z,19.40
2022-11-25T12:35:46.045Z,19.80
2022-11-25T12:38:45.151Z,20.00
2022-11-25T12:41:35.952Z,19.80
2022-11-25T12:44:12.436Z,20.30
2022-11-25T12:46:39.285Z,20.20
2022-11-25T12:49:14.098Z,20.30
2022-11-25T12:51:56.627Z,20.20
2022-11-25T12:54:48.230Z,20.10
2022-11-25T12:57:26.956Z,20.10
2022-11-25T13:00:39.807Z,20.20
2022-11-25T13:03:37.262Z,20.20
2022-11-25T13:06:55.167Z,20.20
2022-11-25T13:09:53.707Z,20.20
2022-11-25T13:12:29.699Z,20.20
2022-11-25T13:15:15.198Z,20.20
2022-11-25T13:17:44.562Z,20.30
2022-11-25T13:20:29.771Z,20.50
2022-11-25T13:23:05.809Z,20.70
2022-11-25T13:25:33.811Z,20.70
2022-11-25T13:28:03.355Z,20.60
2022-11-25T13:30:33.412Z,20.70
2022-11-25T13:33:12.452Z,20.60
2022-11-25T13:35:50.715Z,20.60
2022-11-25T13:38:29.562Z,20.30
2022-11-25T13:41:16.682Z,20.40
2022-11-25T13:44:07.289Z,20.30
2022-11-25T13:46:37.216Z,20.40
2022-11-25T13:49:25.783Z,20.60
2022-11-25T13:51:55.761Z,20.70
2022-11-25T13:54:36.880Z,20.60
2022-11-25T13:57:13.244Z,20.90
2022-11-25T13:59:43.041Z,21.20
2022-11-25T14:02:28.324Z,20.90
2022-11-25T14:05:11.029Z,20.60
2022-11-25T14:07:46.672Z,20.60
2022-11-25T14:10:50.735Z,20.70
2022-11-25T14:13:32.937Z,20.70
2022-11-25T14:16:32.449Z,20.90
2022-11-25T14:19:43.173Z,21.00
2022-11-25T14:22:36.018Z,21.30
2022-11-25T14:25:15.255Z,21.20
2022-11-25T14:27:48.432Z,21.00
2022-11-25T14:30:16.600Z,20.90
2022-11-25T14:32:46.844Z,20.80
2022-11-25T14:35:45.547Z,21.10
2022-11-25T14:38:20.642Z,21.10
2022-11-25T14:40:56.137Z,21.30
2022-11-25T14:43:29.012Z,21.30
2022-11-25T14:46:25.800Z,21.80
2022-11-25T14:48:57.528Z,21.60
2022-11-25T14:51:38.542Z,21.20
2022-11-25T14:54:09.389Z,21.20
2022-11-25T14:56:37.674Z,21.50
2022-11-25T14:59:07.570Z,21.40
2022-11-25T15:01:36.317Z,21.40
2022-11-25T15:04:22.285Z,21.20
2022-11-25T15:06:57.834Z,21.10
2022-11-25T15:09:27.794Z,21.00
2022-11-25T15:11:58.930Z,20.90
2022-11-25T15:14:30.411Z,21.10
2022-11-25T15:16:57.611Z,21.10
2022-11-25T15:19:33.285Z,21.30
2022-11-25T15:24:55.617Z,21.30
2022-11-25T15:27:28.508Z,21.40
2022-11-25T15:29:57.592Z,21.80
2022-11-25T15:32:38.060Z,21.70
2022-11-25T15:35:06.882Z,22.20
2022-11-25T15:37:33.770Z,22.00
2022-11-25T15:40:32.632Z,21.50
2022-11-25T15:43:01.741Z,21.80
2022-11-25T15:45:46.235Z,21.80
2022-11-25T15:48:20.041Z,21.90
2022-11-25T15:50:47.033Z,22.00
2022-11-25T15:53:30.222Z,21.90
2022-11-25T15:56:01.640Z,21.70
2022-11-25T15:58:28.625Z,21.30
2022-11-25T16:01:19.365Z,21.30
2022-11-25T16:03:47.811Z,21.50
2022-11-25T16:06:26.317Z,21.30
2022-11-25T16:09:01.953Z,21.20
2022-11-25T16:11:33.666Z,21.20
2022-11-25T16:14:29.261Z,21.30
2022-11-25T16:17:04.013Z,21.30
2022-11-25T16:19:38.040Z,21.70
2022-11-25T16:22:05.959Z,21.50
2022-11-25T16:24:34.694Z,21.40
2022-11-25T16:27:05.192Z,21.40
2022-11-25T16:29:37.107Z,21.50
2022-11-25T16:32:14.647Z,21.40
2022-11-25T16:34:42.201Z,22.00
2022-11-25T16:37:09.431Z,22.20
2022-11-25T16:39:38.258Z,21.90
2022-11-25T16:42:05.992Z,21.50
2022-11-25T16:44:35.340Z,21.70
2022-11-25T16:47:02.775Z,21.90
2022-11-25T16:49:31.075Z,22.10
2022-11-25T16:51:57.942Z,22.20
2022-11-25T16:54:24.837Z,22.30
2022-11-25T16:56:55.621Z,22.10
2022-11-25T16:59:40.000Z,22.00
2022-11-25T17:02:19.542Z,21.80
2022-11-25T17:04:47.531Z,21.80
2022-11-25T17:07:32.264Z,21.60
2022-11-25T17:10:00.085Z,21.60
2022-11-25T17:12:30.678Z,21.70
2022-11-25T17:15:00.340Z,21.60
2022-11-25T17:17:28.428Z,21.70
2022-11-25T17:19:55.576Z,22.10
2022-11-25T17:22:24.937Z,22.20
2022-11-25T17:24:52.560Z,22.40
2022-11-25T17:27:26.904Z,22.40
2022-11-25T17:29:56.532Z,22.30
2022-11-25T17:32:23.732Z,22.30
2022-11-25T17:34:50.658Z,22.20
2022-11-25T17:37:21.359Z,22.40
2022-11-25T17:39:48.332Z,23.00
2022-11-25T17:42:17.629Z,23.30
2022-11-25T17:44:48.694Z,23.60
2022-11-25T17:47:20.076Z,23.80
2022-11-25T17:49:47.104Z,24.40
2022-11-25T17:52:14.041Z,24.30
2022-11-25T17:54:41.390Z,23.80
2022-11-25T17:57:14.433Z,24.70
2022-11-25T17:59:41.634Z,24.60
2022-11-25T18:02:19.846Z,23.90
2022-11-25T18:04:47.220Z,23.60
2022-11-25T18:07:14.227Z,23.20
2022-11-25T18:09:41.411Z,22.50
2022-11-25T18:12:30.637Z,22.40
2022-11-25T18:14:57.814Z,22.00
2022-11-25T18:17:25.142Z,21.70
2022-11-25T18:19:55.284Z,21.50
2022-11-25T18:22:24.280Z,21.60
2022-11-25T18:24:52.091Z,21.80
2022-11-25T18:27:27.884Z,21.70
2022-11-25T18:29:56.569Z,21.60
2022-11-25T18:32:24.499Z,21.40
2022-11-25T18:34:52.044Z,21.50
2022-11-25T18:37:18.987Z,21.60
2022-11-25T18:39:46.834Z,21.50
2022-11-25T18:42:25.587Z,21.50
2022-11-25T18:44:53.953Z,21.60
2022-11-25T18:47:20.936Z,21.80
2022-11-25T18:49:52.318Z,22.00
2022-11-25T18:52:22.255Z,21.90
2022-11-25T18:54:49.720Z,22.30
2022-11-25T18:57:16.767Z,22.50
2022-11-25T18:59:44.774Z,22.10
2022-11-25T19:02:17.544Z,21.70
2022-11-25T19:04:44.872Z,21.70
2022-11-25T19:07:11.882Z,22.10
2022-11-25T19:09:39.029Z,22.30
2022-11-25T19:12:07.209Z,22.20
2022-11-25T19:14:37.866Z,22.20
2022-11-25T19:17:09.524Z,22.40
2022-11-25T19:19:37.967Z,22.30
2022-11-25T19:22:12.047Z,22.30
2022-11-25T19:24:39.279Z,22.20
2022-11-25T19:27:06.413Z,22.00
2022-11-25T19:29:41.547Z,21.70
2022-11-25T19:32:21.460Z,21.90
2022-11-25T19:34:52.930Z,21.80
2022-11-25T19:37:22.416Z,22.00
2022-11-25T19:39:53.250Z,21.90
2022-11-25T19:42:21.270Z,22.40
2022-11-25T19:44:48.242Z,22.90
2022-11-25T19:47:23.921Z,23.00
2022-11-25T19:49:54.128Z,22.60
2022-11-25T19:52:24.507Z,22.40
2022-11-25T19:54:51.503Z,22.50
2022-11-25T19:57:22.298Z,22.60
2022-11-25T19:59:50.195Z,22.50
2022-11-25T20:02:26.341Z,22.40
2022-11-25T20:04:56.162Z,22.40
2022-11-25T20:07:23.598Z,22.30
2022-11-25T20:09:56.974Z,22.20
2022-11-25T20:12:29.785Z,22.30
2022-11-25T20:14:56.826Z,22.40
2022-11-25T20:17:32.808Z,22.60
2022-11-25T20:20:07.346Z,22.60
2022-11-25T20:22:38.142Z,22.50
2022-11-25T20:25:10.696Z,22.40
2022-11-25T20:27:37.867Z,22.20
2022-11-25T20:30:26.599Z,22.10
2022-11-25T20:32:54.161Z,22.10
2022-11-25T20:35:22.580Z,22.30
2022-11-25T20:37:58.087Z,22.30
2022-11-25T20:40:33.436Z,22.30
2022-11-25T20:43:00.822Z,22.30
2022-11-25T20:45:29.071Z,22.30
2022-11-25T20:47:56.677Z,22.00
2022-11-25T20:50:23.635Z,21.90
2022-11-25T20:52:50.776Z,22.00
2022-11-25T20:55:26.361Z,21.80
2022-11-25T20:57:53.604Z,21.70
2022-11-25T21:00:28.591Z,21.60
2022-11-25T21:02:57.512Z,21.60
2022-11-25T21:05:26.486Z,22.20
2022-11-25T21:07:55.444Z,21.70
2022-11-25T21:10:28.340Z,21.60
2022-11-25T21:12:56.245Z,21.80
2022-11-25T21:15:26.457Z,22.00
2022-11-25T21:17:55.760Z,21.90
2022-11-25T21:20:22.717Z,21.80
2022-11-25T21:22:53.623Z,21.70
2022-11-25T21:25:22.619Z,21.70
2022-11-25T21:27:51.172Z,21.70
2022-11-25T21:30:30.943Z,21.70
2022-11-25T21:33:01.810Z,21.70
2022-11-25T21:35:34.895Z,21.80
2022-11-25T21:38:05.647Z,22.30
2022-11-25T21:40:41.078Z,22.40
2022-11-25T21:43:21.594Z,22.20
2022-11-25T21:45:53.422Z,22.50
2022-11-25T21:48:21.568Z,22.50
2022-11-25T21:50:49.403Z,22.20
2022-11-25T21:53:16.976Z,21.90
2022-11-25T21:55:44.496Z,22.10
2022-11-25T21:58:18.599Z,21.80
2022-11-25T22:01:06.019Z,21.80
2022-11-25T22:03:32.987Z,22.00
2022-11-25T22:05:59.888Z,22.00
2022-11-25T22:08:26.927Z,21.80
2022-11-25T22:10:55.787Z,21.90
2022-11-25T22:13:37.322Z,22.10
2022-11-25T22:16:05.994Z,22.00
2022-11-25T22:18:35.724Z,22.00
2022-11-25T22:21:03.734Z,22.10
2022-11-25T22:23:30.674Z,22.00
2022-11-25T22:25:57.947Z,22.30
2022-11-25T22:28:27.479Z,22.20
2022-11-25T22:30:57.077Z,22.40
2022-11-25T22:33:31.120Z,22.40
2022-11-25T22:35:58.116Z,22.20
2022-11-25T22:38:25.211Z,22.20
2022-11-25T22:40:59.386Z,22.20
2022-11-25T22:43:31.271Z,22.10
2022-11-25T22:45:58.559Z,21.90
2022-11-25T22:48:36.410Z,22.10
2022-11-25T22:51:04.071Z,22.00
2022-11-25T22:53:31.127Z,21.90
2022-11-25T22:55:58.674Z,21.80
2022-11-25T22:58:26.762Z,21.80
2022-11-25T23:00:57.196Z,21.70
2022-11-25T23:03:29.471Z,22.00
2022-11-25T23:05:57.379Z,22.10
2022-11-25T23:08:26.751Z,22.20
2022-11-25T23:10:54.362Z,22.00
2022-11-25T23:13:21.818Z,21.90
2022-11-25T23:16:00.082Z,21.90
2022-11-25T23:18:38.195Z,21.80
2022-11-25T23:21:22.120Z,21.80
2022-11-25T23:23:49.628Z,22.10
2022-11-25T23:26:16.547Z,21.90
2022-11-25T23:28:43.487Z,21.80
2022-11-25T23:31:13.640Z,21.80
2022-11-25T23:33:41.936Z,21.80
2022-11-25T23:36:31.971Z,22.10
2022-11-25T23:39:02.060Z,22.30
2022-11-25T23:41:34.109Z,22.30
2022-11-25T23:44:18.348Z,22.20
2022-11-25T23:46:45.492Z,22.10
2022-11-25T23:49:44.740Z,22.20
2022-11-25T23:52:16.030Z,22.10
2022-11-25T23:54:48.118Z,22.30
2022-11-25T23:57:15.418Z,22.20
2022-11-25T23:59:43.104Z,22.00
